Time;durP1;ratioP1;P1;durP2;ratioP2;P2;SDS_P1;SDS_P2;PMS_P1;PMS_P2;Temp;Humidity;BMP_temperature;BMP_pressure;BME280_temperature;BME280_humidity;BME280_pressure;Samples;Min_cycle;Max_cycle;Signal;HPM_P1;HPM_P2
2024/01/26 00:02:10;;;;;;;;;;;;;;;;;;5036892;28;19909;-22
2024/01/26 00:04:36;;;;;;;;;;;;;;;;;;5037071;28;19913;-20
2024/01/26 00:07:02;;;;;;;;;;;;;;;;;;5036961;28;19924;-21
2024/01/26 00:09:28;;;;;;;;;;;;;;;;;;5036998;28;19909;-20
2024/01/26 00:11:54;;;;;;;;;;;;;;;;;;5037175;28;19909;-20
2024/01/26 00:14:20;;;;;;;;;;;;;;;;;;5036924;28;20379;-22
2024/01/26 00:16:46;;;;;;;;;;;;;;;;;;5035928;28;20268;-21
2024/01/26 00:19:11;;;;;;;;;;;;;;;;;;5036869;28;19931;-21
2024/01/26 00:21:39;;;;;;;;;;;;;;;;;;5036818;28;19924;-22
2024/01/26 00:24:04;;;;;;;;;;;;;;;;;;5036691;28;20367;-20
2024/01/26 00:26:30;;;;;;;;;;;;;;;;;;5036887;28;19909;-21
2024/01/26 00:28:56;;;;;;;;;;;;;;;;;;5036652;28;19913;-22
2024/01/26 00:31:22;;;;;;;;;;;;;;;;;;5036883;28;20340;-21
2024/01/26 00:33:48;;;;;;;;;;;;;;;;;;5036556;28;20337;-20
2024/01/26 00:36:14;;;;;;;;;;;;;;;;;;5036554;28;19909;-23
2024/01/26 00:38:40;;;;;;;;;;;;;;;;;;5036485;28;19913;-20
2024/01/26 00:41:06;;;;;;;;;;;;;;;;;;5036489;28;19909;-22
2024/01/26 00:43:32;;;;;;;;;;;;;;;;;;5036364;28;19916;-20
2024/01/26 00:45:58;;;;;;;;;;;;;;;;;;5036604;28;19972;-21
2024/01/26 00:48:24;;;;;;;;;;;;;;;;;;5034867;28;19913;-20
2024/01/26 00:50:50;;;;;;;;;;;;;;;;;;5036066;28;19909;-20
2024/01/26 00:53:16;;;;;;;;;;;;;;;;;;5036184;28;19909;-22
2024/01/26 00:55:42;;;;;;;;;;;;;;;;;;5036429;28;19909;-22
2024/01/26 00:58:08;;;;;;;;;;;;;;;;;;5036402;28;19932;-23
2024/01/26 01:00:34;;;;;;;;;;;;;;;;;;5036085;28;19937;-20
2024/01/26 01:03:00;;;;;;;;;;;;;;;;;;5035739;28;20267;-21
2024/01/26 01:05:26;;;;;;;;;;;;;;;;;;5035906;28;20334;-20
2024/01/26 01:07:52;;;;;;;;;;;;;;;;;;5036125;28;20015;-20
2024/01/26 01:10:19;;;;;;;;;;;;;;;;;;5036137;28;19909;-22
2024/01/26 01:12:45;;;;;;;;;;;;;;;;;;5036301;28;19953;-21
2024/01/26 01:15:14;;;;;;;;;;;;;;;;;;5035980;28;19948;-21
2024/01/26 01:17:40;;;;;;;;;;;;;;;;;;5035693;28;20001;-20
2024/01/26 01:20:06;;;;;;;;;;;;;;;;;;5035947;28;19910;-21
2024/01/26 01:22:32;;;;;;;;;;;;;;;;;;5035555;28;19997;-22
2024/01/26 01:24:58;;;;;;;;;;;;;;;;;;5035565;28;19967;-20
2024/01/26 01:27:24;;;;;;;;;;;;;;;;;;5034518;28;19917;-21
2024/01/26 01:29:50;;;;;;;;;;;;;;;;;;5035550;28;19910;-21
2024/01/26 01:32:16;;;;;;;;;;;;;;;;;;5035439;28;19982;-21
2024/01/26 01:34:43;;;;;;;;;;;;;;;;;;5035692;28;20046;-20
2024/01/26 01:37:09;;;;;;;;;;;;;;;;;;5035436;28;19920;-21
2024/01/26 01:39:37;;;;;;;;;;;;;;;;;;5035625;28;20314;-21
2024/01/26 01:42:03;;;;;;;;;;;;;;;;;;5035289;28;19992;-20
2024/01/26 01:44:30;;;;;;;;;;;;;;;;;;5034252;28;20410;-21
2024/01/26 01:46:56;;;;;;;;;;;;;;;;;;5035425;28;19963;-20
2024/01/26 01:49:22;;;;;;;;;;;;;;;;;;5034156;28;19909;-21
2024/01/26 01:51:48;;;;;;;;;;;;;;;;;;5035381;28;19909;-21
2024/01/26 01:54:14;;;;;;;;;;;;;;;;;;5035369;28;19944;-20
2024/01/26 01:56:40;;;;;;;;;;;;;;;;;;5035021;28;20390;-21
2024/01/26 01:59:06;;;;;;;;;;;;;;;;;;5035017;28;20340;-22
2024/01/26 02:01:32;;;;;;;;;;;;;;;;;;5034639;28;19920;-20
2024/01/26 02:04:02;;;;;;;;;;;;;;;;;;5034707;28;19917;-21
2024/01/26 02:06:28;;;;;;;;;;;;;;;;;;5035136;28;19935;-21
2024/01/26 02:08:54;;;;;;;;;;;;;;;;;;5034894;28;19909;-22
2024/01/26 02:11:20;;;;;;;;;;;;;;;;;;5035101;28;20393;-22
2024/01/26 02:13:46;;;;;;;;;;;;;;;;;;5034809;28;19909;-26
2024/01/26 02:16:12;;;;;;;;;;;;;;;;;;5035046;28;19920;-21
2024/01/26 02:18:38;;;;;;;;;;;;;;;;;;5035015;28;19909;-21
2024/01/26 02:21:03;;;;;;;;;;;;;;;;;;5034760;28;19909;-22
2024/01/26 02:23:29;;;;;;;;;;;;;;;;;;5034757;28;20294;-21
2024/01/26 02:25:55;;;;;;;;;;;;;;;;;;5034707;28;19952;-21
2024/01/26 02:28:23;;;;;;;;;;;;;;;;;;5033563;28;19972;-20
2024/01/26 02:30:49;;;;;;;;;;;;;;;;;;5034902;28;19913;-20
2024/01/26 02:33:15;;;;;;;;;;;;;;;;;;5034790;28;19977;-21
2024/01/26 02:35:41;;;;;;;;;;;;;;;;;;5034510;28;20005;-20
2024/01/26 02:38:07;;;;;;;;;;;;;;;;;;5034810;28;19989;-21
2024/01/26 02:40:32;;;;;;;;;;;;;;;;;;5034563;28;19935;-22
2024/01/26 02:42:59;;;;;;;;;;;;;;;;;;5034585;28;19909;-22
2024/01/26 02:45:25;;;;;;;;;;;;;;;;;;5033524;28;19909;-21
2024/01/26 02:47:51;;;;;;;;;;;;;;;;;;5034414;28;19917;-21
2024/01/26 02:50:17;;;;;;;;;;;;;;;;;;5034480;28;20052;-21
2024/01/26 02:52:43;;;;;;;;;;;;;;;;;;5034543;28;19917;-21
2024/01/26 02:55:08;;;;;;;;;;;;;;;;;;5034676;28;19951;-20
2024/01/26 02:57:34;;;;;;;;;;;;;;;;;;5034400;28;19909;-22
2024/01/26 03:00:00;;;;;;;;;;;;;;;;;;5033392;28;19909;-22
2024/01/26 03:02:26;;;;;;;;;;;;;;;;;;5034244;28;19913;-21
2024/01/26 03:04:52;;;;;;;;;;;;;;;;;;5034651;28;19909;-21
2024/01/26 03:07:18;;;;;;;;;;;;;;;;;;5034239;28;19917;-21
2024/01/26 03:09:44;;;;;;;;;;;;;;;;;;5034547;28;20344;-20
2024/01/26 03:12:13;;;;;;;;;;;;;;;;;;5032945;28;20209;-22
2024/01/26 03:14:39;;;;;;;;;;;;;;;;;;5038074;28;19959;-20
2024/01/26 03:17:05;;;;;;;;;;;;;;;;;;5038005;28;19905;-22
2024/01/26 03:19:35;;;;;;;;;;;;;;;;;;5038251;28;20008;-20
2024/01/26 03:22:01;;;;;;;;;;;;;;;;;;5037883;28;19905;-22
2024/01/26 03:24:27;;;;;;;;;;;;;;;;;;5037897;28;20264;-21
2024/01/26 03:26:53;;;;;;;;;;;;;;;;;;5038115;28;20008;-24
2024/01/26 03:29:20;;;;;;;;;;;;;;;;;;5036853;28;19967;-21
2024/01/26 03:31:46;;;;;;;;;;;;;;;;;;5036743;28;19909;-21
2024/01/26 03:34:12;;;;;;;;;;;;;;;;;;5037717;28;19909;-20
2024/01/26 03:36:38;;;;;;;;;;;;;;;;;;5037664;28;20351;-22
2024/01/26 03:39:04;;;;;;;;;;;;;;;;;;5037614;28;19994;-24
2024/01/26 03:41:30;;;;;;;;;;;;;;;;;;5037848;28;19920;-21
2024/01/26 03:43:56;;;;;;;;;;;;;;;;;;5037470;28;19996;-21
2024/01/26 03:46:22;;;;;;;;;;;;;;;;;;5037457;28;20000;-20
2024/01/26 03:48:48;;;;;;;;;;;;;;;;;;5037371;28;19913;-21
2024/01/26 03:51:14;;;;;;;;;;;;;;;;;;5037376;28;19909;-21
2024/01/26 03:53:40;;;;;;;;;;;;;;;;;;5037351;28;19936;-20
2024/01/26 03:56:06;;;;;;;;;;;;;;;;;;5036359;28;19909;-22
2024/01/26 03:58:32;;;;;;;;;;;;;;;;;;5037267;28;20007;-21
2024/01/26 04:00:58;;;;;;;;;;;;;;;;;;5037479;28;19913;-21
2024/01/26 04:03:24;;;;;;;;;;;;;;;;;;5036871;28;20427;-21
2024/01/26 04:05:50;;;;;;;;;;;;;;;;;;5037074;28;19944;-20
2024/01/26 04:08:18;;;;;;;;;;;;;;;;;;5037040;28;19986;-19
2024/01/26 04:10:44;;;;;;;;;;;;;;;;;;5037107;28;20252;-21
2024/01/26 04:13:10;;;;;;;;;;;;;;;;;;5036966;28;19909;-20
2024/01/26 04:15:36;;;;;;;;;;;;;;;;;;5037178;28;20450;-20
2024/01/26 04:18:02;;;;;;;;;;;;;;;;;;5037171;28;19916;-22
2024/01/26 04:20:28;;;;;;;;;;;;;;;;;;5037099;28;20012;-22
2024/01/26 04:22:54;;;;;;;;;;;;;;;;;;5036499;28;19921;-22
2024/01/26 04:25:20;;;;;;;;;;;;;;;;;;5036618;28;19909;-21
2024/01/26 04:27:46;;;;;;;;;;;;;;;;;;5036909;28;19913;-22
2024/01/26 04:30:12;;;;;;;;;;;;;;;;;;5036639;28;20366;-21
2024/01/26 04:32:38;;;;;;;;;;;;;;;;;;5036755;28;19923;-21
2024/01/26 04:35:04;;;;;;;;;;;;;;;;;;5036543;28;19909;-22
2024/01/26 04:37:30;;;;;;;;;;;;;;;;;;5036544;28;19909;-21
2024/01/26 04:39:56;;;;;;;;;;;;;;;;;;5036723;28;19909;-20
2024/01/26 04:42:22;;;;;;;;;;;;;;;;;;5036226;28;19913;-21
2024/01/26 04:44:48;;;;;;;;;;;;;;;;;;5036374;28;20000;-20
2024/01/26 04:47:16;;;;;;;;;;;;;;;;;;5036421;28;19913;-22
2024/01/26 04:49:42;;;;;;;;;;;;;;;;;;5036492;28;20209;-21
2024/01/26 04:52:08;;;;;;;;;;;;;;;;;;5036117;28;19909;-21
2024/01/26 04:54:34;;;;;;;;;;;;;;;;;;5036040;28;19909;-23
2024/01/26 04:57:00;;;;;;;;;;;;;;;;;;5036398;28;19910;-22
2024/01/26 04:59:26;;;;;;;;;;;;;;;;;;5035887;28;19910;-20
2024/01/26 05:01:52;;;;;;;;;;;;;;;;;;5036072;28;19909;-20
2024/01/26 05:04:18;;;;;;;;;;;;;;;;;;5035731;28;19986;-21
2024/01/26 05:06:44;;;;;;;;;;;;;;;;;;5035985;28;19909;-21
2024/01/26 05:09:11;;;;;;;;;;;;;;;;;;5035614;28;19913;-22
2024/01/26 05:11:37;;;;;;;;;;;;;;;;;;5035610;28;20017;-22
2024/01/26 05:14:03;;;;;;;;;;;;;;;;;;5035534;28;19920;-22
2024/01/26 05:16:29;;;;;;;;;;;;;;;;;;5035268;28;20362;-22
2024/01/26 05:18:55;;;;;;;;;;;;;;;;;;5035694;28;19909;-23
2024/01/26 05:21:21;;;;;;;;;;;;;;;;;;5035586;28;19917;-21
2024/01/26 05:23:47;;;;;;;;;;;;;;;;;;5035288;28;20001;-21
2024/01/26 05:26:13;;;;;;;;;;;;;;;;;;5035641;28;19916;-22
2024/01/26 05:28:39;;;;;;;;;;;;;;;;;;5034153;28;19913;-22
2024/01/26 05:31:05;;;;;;;;;;;;;;;;;;5033967;28;19920;-22
2024/01/26 05:33:31;;;;;;;;;;;;;;;;;;5034970;28;19909;-22
2024/01/26 05:35:57;;;;;;;;;;;;;;;;;;5034546;28;19917;-22
2024/01/26 05:38:23;;;;;;;;;;;;;;;;;;5034947;28;19909;-21
2024/01/26 05:40:49;;;;;;;;;;;;;;;;;;5034934;28;19909;-22
2024/01/26 05:43:15;;;;;;;;;;;;;;;;;;5033715;28;19941;-22
2024/01/26 05:45:41;;;;;;;;;;;;;;;;;;5035070;28;19909;-23
2024/01/26 05:48:07;;;;;;;;;;;;;;;;;;5034803;28;19917;-20
2024/01/26 05:50:33;;;;;;;;;;;;;;;;;;5034587;28;19987;-21
2024/01/26 05:52:59;;;;;;;;;;;;;;;;;;5034257;28;20295;-21
2024/01/26 05:55:25;;;;;;;;;;;;;;;;;;5034834;28;20283;-20
2024/01/26 05:57:51;;;;;;;;;;;;;;;;;;5033524;28;19920;-22
2024/01/26 06:00:17;;;;;;;;;;;;;;;;;;5034622;28;19962;-22
2024/01/26 06:02:43;;;;;;;;;;;;;;;;;;5034310;28;19917;-21
2024/01/26 06:05:09;;;;;;;;;;;;;;;;;;5033569;28;19971;-21
2024/01/26 06:07:35;;;;;;;;;;;;;;;;;;5034343;28;19913;-20
2024/01/26 06:10:01;;;;;;;;;;;;;;;;;;5034402;28;20303;-21
2024/01/26 06:12:27;;;;;;;;;;;;;;;;;;5033376;28;19924;-22
2024/01/26 06:14:53;;;;;;;;;;;;;;;;;;5034538;28;19909;-21
2024/01/26 06:17:19;;;;;;;;;;;;;;;;;;5034795;28;19962;-21
2024/01/26 06:19:45;;;;;;;;;;;;;;;;;;5034387;28;20381;-22
2024/01/26 06:22:11;;;;;;;;;;;;;;;;;;5034002;28;19991;-22
2024/01/26 06:24:37;;;;;;;;;;;;;;;;;;5034162;28;19941;-22
2024/01/26 06:27:03;;;;;;;;;;;;;;;;;;5033234;28;19913;-23
2024/01/26 06:29:29;;;;;;;;;;;;;;;;;;5034454;28;20355;-21
2024/01/26 06:31:55;;;;;;;;;;;;;;;;;;5034092;28;20363;-22
2024/01/26 06:34:21;;;;;;;;;;;;;;;;;;5034035;28;20281;-20
2024/01/26 06:36:47;;;;;;;;;;;;;;;;;;5033989;28;19913;-22
2024/01/26 06:39:13;;;;;;;;;;;;;;;;;;5033027;28;19909;-22
2024/01/26 06:41:39;;;;;;;;;;;;;;;;;;5034225;28;19935;-21
2024/01/26 06:44:06;;;;;;;;;;;;;;;;;;5034241;28;20328;-22
2024/01/26 06:46:32;;;;;;;;;;;;;;;;;;5036081;28;19909;-22
2024/01/26 06:48:58;;;;;;;;;;;;;;;;;;5038340;28;20074;-20
2024/01/26 06:51:24;;;;;;;;;;;;;;;;;;5037959;28;19920;-20
2024/01/26 06:53:50;;;;;;;;;;;;;;;;;;5037833;28;19909;-21
2024/01/26 06:56:16;;;;;;;;;;;;;;;;;;5038577;28;19960;-22
2024/01/26 06:58:42;;;;;;;;;;;;;;;;;;5037953;28;19909;-21
2024/01/26 07:01:09;;;;;;;;;;;;;;;;;;5037718;28;19942;-22
2024/01/26 07:03:35;;;;;;;;;;;;;;;;;;5037589;28;20332;-22
2024/01/26 07:06:01;;;;;;;;;;;;;;;;;;5037839;28;19916;-22
2024/01/26 07:08:27;;;;;;;;;;;;;;;;;;5036669;28;20389;-21
2024/01/26 07:10:53;;;;;;;;;;;;;;;;;;5037776;28;19909;-23
2024/01/26 07:13:19;;;;;;;;;;;;;;;;;;5037336;28;19917;-22
2024/01/26 07:15:45;;;;;;;;;;;;;;;;;;5037095;28;19909;-23
2024/01/26 07:18:11;;;;;;;;;;;;;;;;;;5035494;28;19999;-21
2024/01/26 07:20:37;;;;;;;;;;;;;;;;;;5036967;28;19913;-24
2024/01/26 07:23:03;;;;;;;;;;;;;;;;;;5035663;28;19967;-21
2024/01/26 07:25:30;;;;;;;;;;;;;;;;;;5036535;28;19910;-21
2024/01/26 07:27:56;;;;;;;;;;;;;;;;;;5036320;28;19980;-22
2024/01/26 07:30:22;;;;;;;;;;;;;;;;;;5036530;28;19910;-21
2024/01/26 07:32:48;;;;;;;;;;;;;;;;;;5036281;28;19913;-23
2024/01/26 07:35:14;;;;;;;;;;;;;;;;;;5036641;28;19920;-22
2024/01/26 07:37:40;;;;;;;;;;;;;;;;;;5036393;28;19919;-20
2024/01/26 07:40:06;;;;;;;;;;;;;;;;;;5036266;28;19995;-20
2024/01/26 07:42:32;;;;;;;;;;;;;;;;;;5036479;28;19909;-20
2024/01/26 07:44:58;;;;;;;;;;;;;;;;;;5036922;28;20372;-23
2024/01/26 07:47:24;;;;;;;;;;;;;;;;;;5035735;28;19931;-23
2024/01/26 07:49:50;;;;;;;;;;;;;;;;;;5036804;28;19909;-21
2024/01/26 07:52:16;;;;;;;;;;;;;;;;;;5037104;28;19919;-22
2024/01/26 07:54:42;;;;;;;;;;;;;;;;;;5036791;28;19972;-21
2024/01/26 07:57:08;;;;;;;;;;;;;;;;;;5036108;28;19940;-21
2024/01/26 07:59:34;;;;;;;;;;;;;;;;;;5036251;28;20418;-24
2024/01/26 08:02:00;;;;;;;;;;;;;;;;;;5035835;28;19909;-24
2024/01/26 08:04:26;;;;;;;;;;;;;;;;;;5036444;28;19921;-23
2024/01/26 08:06:52;;;;;;;;;;;;;;;;;;5036330;28;19909;-22
2024/01/26 08:09:19;;;;;;;;;;;;;;;;;;5036316;28;19996;-21
2024/01/26 08:11:45;;;;;;;;;;;;;;;;;;5036528;28;19913;-20
2024/01/26 08:14:11;;;;;;;;;;;;;;;;;;5036347;28;19916;-20
2024/01/26 08:16:37;;;;;;;;;;;;;;;;;;5035699;28;19949;-23
2024/01/26 08:19:03;;;;;;;;;;;;;;;;;;5035434;28;20020;-23
2024/01/26 08:21:29;;;;;;;;;;;;;;;;;;5036281;28;19909;-23
2024/01/26 08:23:55;;;;;;;;;;;;;;;;;;5035188;28;20405;-22
2024/01/26 08:26:21;;;;;;;;;;;;;;;;;;5036262;28;19945;-21
2024/01/26 08:28:47;;;;;;;;;;;;;;;;;;5036466;28;19917;-20
2024/01/26 08:31:13;;;;;;;;;;;;;;;;;;5036271;28;20333;-22
2024/01/26 08:33:40;;;;;;;;;;;;;;;;;;5035055;28;20259;-23
2024/01/26 08:36:06;;;;;;;;;;;;;;;;;;5035118;28;19909;-23
2024/01/26 08:38:32;;;;;;;;;;;;;;;;;;5034934;28;19970;-22
2024/01/26 08:40:58;;;;;;;;;;;;;;;;;;5034880;28;19913;-22
2024/01/26 08:43:24;;;;;;;;;;;;;;;;;;5036171;28;19919;-21
2024/01/26 08:45:50;;;;;;;;;;;;;;;;;;5036032;28;19909;-20
2024/01/26 08:48:16;;;;;;;;;;;;;;;;;;5035780;28;19917;-21
2024/01/26 08:50:43;;;;;;;;;;;;;;;;;;5036235;28;19920;-22
2024/01/26 08:53:09;;;;;;;;;;;;;;;;;;5036026;28;20271;-24
2024/01/26 08:55:35;;;;;;;;;;;;;;;;;;5035398;28;19920;-22
2024/01/26 08:58:02;;;;;;;;;;;;;;;;;;5035685;28;19992;-21
2024/01/26 09:00:28;;;;;;;;;;;;;;;;;;5035700;28;19919;-21
2024/01/26 09:02:54;;;;;;;;;;;;;;;;;;5034688;28;20012;-21
2024/01/26 09:05:20;;;;;;;;;;;;;;;;;;5035737;28;19984;-21
2024/01/26 09:07:46;;;;;;;;;;;;;;;;;;5035283;28;19913;-21
2024/01/26 09:10:12;;;;;;;;;;;;;;;;;;5034471;28;20256;-27
2024/01/26 09:12:38;;;;;;;;;;;;;;;;;;5034264;28;19924;-22
2024/01/26 09:15:04;;;;;;;;;;;;;;;;;;5035472;28;19909;-21
2024/01/26 09:17:30;;;;;;;;;;;;;;;;;;5034966;28;19909;-26
2024/01/26 09:19:56;;;;;;;;;;;;;;;;;;5035360;28;19916;-21
2024/01/26 09:22:23;;;;;;;;;;;;;;;;;;5035552;28;20228;-21
2024/01/26 09:24:49;;;;;;;;;;;;;;;;;;5035437;28;19999;-25
2024/01/26 09:27:15;;;;;;;;;;;;;;;;;;5035132;28;19983;-22
2024/01/26 09:29:41;;;;;;;;;;;;;;;;;;5035384;28;19909;-23
2024/01/26 09:32:07;;;;;;;;;;;;;;;;;;5035011;28;19909;-23
2024/01/26 09:34:33;;;;;;;;;;;;;;;;;;5035066;28;19995;-22
2024/01/26 09:36:59;;;;;;;;;;;;;;;;;;5035062;28;19951;-21
2024/01/26 09:39:25;;;;;;;;;;;;;;;;;;5035104;28;19909;-23
2024/01/26 09:41:51;;;;;;;;;;;;;;;;;;5034922;28;20213;-22
2024/01/26 09:44:17;;;;;;;;;;;;;;;;;;5033308;28;20008;-22
2024/01/26 09:46:43;;;;;;;;;;;;;;;;;;5033945;28;20359;-23
2024/01/26 09:49:09;;;;;;;;;;;;;;;;;;5033815;28;19910;-25
2024/01/26 09:51:35;;;;;;;;;;;;;;;;;;5032755;28;19916;-20
2024/01/26 09:54:01;;;;;;;;;;;;;;;;;;5033540;28;20410;-22
2024/01/26 09:56:27;;;;;;;;;;;;;;;;;;5033670;28;19913;-23
2024/01/26 09:58:53;;;;;;;;;;;;;;;;;;5033485;28;19937;-23
2024/01/26 10:01:19;;;;;;;;;;;;;;;;;;5033346;28;20035;-22
2024/01/26 10:03:45;;;;;;;;;;;;;;;;;;5033030;28;20252;-22
2024/01/26 10:06:11;;;;;;;;;;;;;;;;;;5033414;28;19920;-22
2024/01/26 10:08:37;;;;;;;;;;;;;;;;;;5032077;28;19917;-21
2024/01/26 10:11:03;;;;;;;;;;;;;;;;;;5033427;28;19909;-23
2024/01/26 10:13:29;;;;;;;;;;;;;;;;;;5031966;28;19909;-24
2024/01/26 10:15:55;;;;;;;;;;;;;;;;;;5032043;28;20344;-22
2024/01/26 10:18:21;;;;;;;;;;;;;;;;;;5033270;28;19916;-22
2024/01/26 10:20:47;;;;;;;;;;;;;;;;;;5033371;28;20004;-21
2024/01/26 10:23:13;;;;;;;;;;;;;;;;;;5033202;28;20206;-22
2024/01/26 10:25:39;;;;;;;;;;;;;;;;;;5034341;28;19960;-22
2024/01/26 10:28:05;;;;;;;;;;;;;;;;;;5034183;28;19913;-23
2024/01/26 10:30:31;;;;;;;;;;;;;;;;;;5034434;28;20328;-22
2024/01/26 10:32:57;;;;;;;;;;;;;;;;;;5034339;28;19920;-21
2024/01/26 10:35:23;;;;;;;;;;;;;;;;;;5034622;28;19910;-21
2024/01/26 10:37:49;;;;;;;;;;;;;;;;;;5034167;28;20394;-20
2024/01/26 10:40:15;;;;;;;;;;;;;;;;;;5033389;28;19909;-21
2024/01/26 10:42:41;;;;;;;;;;;;;;;;;;5034283;28;20406;-22
2024/01/26 10:45:07;;;;;;;;;;;;;;;;;;5034051;28;19917;-22
2024/01/26 10:47:33;;;;;;;;;;;;;;;;;;5034772;28;20003;-22
2024/01/26 10:50:04;;;;;;;;;;;;;;;;;;5034100;28;19909;-20
2024/01/26 10:52:30;;;;;;;;;;;;;;;;;;5033068;28;19909;-20
2024/01/26 10:54:56;;;;;;;;;;;;;;;;;;5034292;28;19981;-21
2024/01/26 10:57:22;;;;;;;;;;;;;;;;;;5032903;28;19920;-23
2024/01/26 10:59:48;;;;;;;;;;;;;;;;;;5034012;28;20339;-22
2024/01/26 11:02:14;;;;;;;;;;;;;;;;;;5032902;28;19920;-22
2024/01/26 11:04:44;;;;;;;;;;;;;;;;;;5034263;28;19913;-22
2024/01/26 11:07:10;;;;;;;;;;;;;;;;;;5033976;28;19913;-22
2024/01/26 11:09:39;;;;;;;;;;;;;;;;;;5034063;28;19917;-22
2024/01/26 11:12:05;;;;;;;;;;;;;;;;;;5032908;28;20368;-21
2024/01/26 11:14:31;;;;;;;;;;;;;;;;;;5033922;28;19913;-21
2024/01/26 11:16:57;;;;;;;;;;;;;;;;;;5034015;28;20128;-22
2024/01/26 11:19:23;;;;;;;;;;;;;;;;;;5034037;28;20332;-21
2024/01/26 11:21:49;;;;;;;;;;;;;;;;;;5033727;28;20322;-22
2024/01/26 11:24:16;;;;;;;;;;;;;;;;;;5033563;28;19909;-22
2024/01/26 11:26:42;;;;;;;;;;;;;;;;;;5033622;28;19952;-21
2024/01/26 11:29:08;;;;;;;;;;;;;;;;;;5033630;28;19956;-21
2024/01/26 11:31:34;;;;;;;;;;;;;;;;;;5033535;28;20332;-20
2024/01/26 11:34:00;;;;;;;;;;;;;;;;;;5033881;28;19909;-24
2024/01/26 11:36:26;;;;;;;;;;;;;;;;;;5037094;28;19956;-23
2024/01/26 11:38:53;;;;;;;;;;;;;;;;;;5037137;28;19924;-23
2024/01/26 11:41:19;;;;;;;;;;;;;;;;;;5037457;28;19928;-21
2024/01/26 11:43:46;;;;;;;;;;;;;;;;;;5037237;28;19910;-21
2024/01/26 11:46:12;;;;;;;;;;;;;;;;;;5037036;28;19948;-22
2024/01/26 11:48:37;;;;;;;;;;;;;;;;;;5037333;28;19964;-20
2024/01/26 11:51:03;;;;;;;;;;;;;;;;;;5037013;28;19991;-23
2024/01/26 11:53:29;;;;;;;;;;;;;;;;;;5037274;28;19920;-23
2024/01/26 11:55:57;;;;;;;;;;;;;;;;;;5037283;28;19909;-23
2024/01/26 11:58:23;;;;;;;;;;;;;;;;;;5036864;28;20252;-23
2024/01/26 12:00:49;;;;;;;;;;;;;;;;;;5036523;28;19909;-23
2024/01/26 12:03:15;;;;;;;;;;;;;;;;;;5035988;28;20333;-23
2024/01/26 12:05:41;;;;;;;;;;;;;;;;;;5036411;28;19910;-23
2024/01/26 12:08:07;;;;;;;;;;;;;;;;;;5036273;28;19917;-25
2024/01/26 12:10:33;;;;;;;;;;;;;;;;;;5035370;28;19928;-25
2024/01/26 12:12:59;;;;;;;;;;;;;;;;;;5036777;28;19921;-25
2024/01/26 12:15:29;;;;;;;;;;;;;;;;;;5036498;28;20266;-24
2024/01/26 12:17:55;;;;;;;;;;;;;;;;;;5036490;28;19920;-24
2024/01/26 12:20:21;;;;;;;;;;;;;;;;;;5036172;28;19909;-24
2024/01/26 12:22:47;;;;;;;;;;;;;;;;;;5036154;28;19935;-24
2024/01/26 12:25:13;;;;;;;;;;;;;;;;;;5035534;28;19909;-25
2024/01/26 12:27:39;;;;;;;;;;;;;;;;;;5036492;28;19967;-25
2024/01/26 12:30:05;;;;;;;;;;;;;;;;;;5035402;28;19940;-24
2024/01/26 12:32:31;;;;;;;;;;;;;;;;;;5036232;28;19971;-24
2024/01/26 12:34:57;;;;;;;;;;;;;;;;;;5036465;28;19917;-24
2024/01/26 12:37:23;;;;;;;;;;;;;;;;;;5035378;28;19909;-25
2024/01/26 12:39:49;;;;;;;;;;;;;;;;;;5036393;28;19976;-25
2024/01/26 12:42:15;;;;;;;;;;;;;;;;;;5036153;28;19909;-23
2024/01/26 12:44:41;;;;;;;;;;;;;;;;;;5036285;28;19982;-23
2024/01/26 12:47:07;;;;;;;;;;;;;;;;;;5034810;28;20492;-24
2024/01/26 12:49:33;;;;;;;;;;;;;;;;;;5036031;28;19996;-23
2024/01/26 12:51:59;;;;;;;;;;;;;;;;;;5035912;28;19910;-23
2024/01/26 12:54:25;;;;;;;;;;;;;;;;;;5035868;28;19909;-23
2024/01/26 12:56:51;;;;;;;;;;;;;;;;;;5034996;28;19941;-23
2024/01/26 12:59:17;;;;;;;;;;;;;;;;;;5035551;28;20256;-23
2024/01/26 13:01:43;;;;;;;;;;;;;;;;;;5036074;28;19916;-23
2024/01/26 13:04:10;;;;;;;;;;;;;;;;;;5035604;28;19921;-23
2024/01/26 13:06:36;;;;;;;;;;;;;;;;;;5035941;28;19909;-24
2024/01/26 13:09:05;;;;;;;;;;;;;;;;;;5036227;28;19913;-30
2024/01/26 13:11:31;;;;;;;;;;;;;;;;;;5035673;28;19920;-24
2024/01/26 13:13:57;;;;;;;;;;;;;;;;;;5035663;28;19999;-24
2024/01/26 13:16:23;;;;;;;;;;;;;;;;;;5035745;28;19936;-23
2024/01/26 13:18:49;;;;;;;;;;;;;;;;;;5035789;28;19962;-24
2024/01/26 13:21:16;;;;;;;;;;;;;;;;;;5034601;28;19909;-24
2024/01/26 13:23:43;;;;;;;;;;;;;;;;;;5035285;28;19964;-24
2024/01/26 13:26:09;;;;;;;;;;;;;;;;;;5035422;28;19921;-24
2024/01/26 13:28:37;;;;;;;;;;;;;;;;;;5035656;28;20240;-25
2024/01/26 13:31:03;;;;;;;;;;;;;;;;;;5035422;28;19988;-23
2024/01/26 13:33:29;;;;;;;;;;;;;;;;;;5035196;28;19967;-24
2024/01/26 13:35:55;;;;;;;;;;;;;;;;;;5035182;28;20008;-24
2024/01/26 13:38:22;;;;;;;;;;;;;;;;;;5035587;28;19921;-24
2024/01/26 13:40:50;;;;;;;;;;;;;;;;;;5035057;28;20001;-25
2024/01/26 13:43:16;;;;;;;;;;;;;;;;;;5034986;28;19952;-24
2024/01/26 13:45:42;;;;;;;;;;;;;;;;;;5035116;28;19921;-25
2024/01/26 13:48:08;;;;;;;;;;;;;;;;;;5033586;28;19921;-24
2024/01/26 13:50:34;;;;;;;;;;;;;;;;;;5033683;28;19921;-25
2024/01/26 13:53:00;;;;;;;;;;;;;;;;;;5034849;28;19909;-25
2024/01/26 13:55:26;;;;;;;;;;;;;;;;;;5035206;28;19909;-24
2024/01/26 13:57:52;;;;;;;;;;;;;;;;;;5034365;28;20323;-23
2024/01/26 14:00:18;;;;;;;;;;;;;;;;;;5034592;28;19992;-23
2024/01/26 14:02:44;;;;;;;;;;;;;;;;;;5033507;28;19917;-23
2024/01/26 14:05:10;;;;;;;;;;;;;;;;;;5034882;28;19969;-24
2024/01/26 14:07:36;;;;;;;;;;;;;;;;;;5034822;28;19924;-24
2024/01/26 14:10:02;;;;;;;;;;;;;;;;;;5034887;28;20287;-24
2024/01/26 14:12:28;;;;;;;;;;;;;;;;;;5033576;28;19913;-24
2024/01/26 14:14:55;;;;;;;;;;;;;;;;;;5034859;28;19909;-28
2024/01/26 14:17:22;;;;;;;;;;;;;;;;;;5034804;28;19909;-24
2024/01/26 14:19:48;;;;;;;;;;;;;;;;;;5034565;28;19996;-24
2024/01/26 14:22:14;;;;;;;;;;;;;;;;;;5033426;28;19947;-24
2024/01/26 14:24:40;;;;;;;;;;;;;;;;;;5033403;28;19964;-24
2024/01/26 14:27:07;;;;;;;;;;;;;;;;;;5034260;28;19916;-22
2024/01/26 14:29:33;;;;;;;;;;;;;;;;;;5033489;28;20028;-23
2024/01/26 14:31:59;;;;;;;;;;;;;;;;;;5034580;28;19967;-23
2024/01/26 14:34:26;;;;;;;;;;;;;;;;;;5034692;28;19909;-23
2024/01/26 14:36:52;;;;;;;;;;;;;;;;;;5034495;28;19910;-23
2024/01/26 14:39:18;;;;;;;;;;;;;;;;;;5034807;28;19966;-22
2024/01/26 14:41:44;;;;;;;;;;;;;;;;;;5034516;28;20004;-23
2024/01/26 14:44:10;;;;;;;;;;;;;;;;;;5034305;28;19909;-23
2024/01/26 14:46:38;;;;;;;;;;;;;;;;;;5034375;28;19992;-23
2024/01/26 14:49:04;;;;;;;;;;;;;;;;;;5034282;28;19914;-23
2024/01/26 14:51:30;;;;;;;;;;;;;;;;;;5034448;28;19959;-23
2024/01/26 14:53:56;;;;;;;;;;;;;;;;;;5034507;28;19909;-23
2024/01/26 14:56:22;;;;;;;;;;;;;;;;;;5034143;28;20004;-23
2024/01/26 14:58:48;;;;;;;;;;;;;;;;;;5034097;28;19913;-23
2024/01/26 15:01:14;;;;;;;;;;;;;;;;;;5034252;28;19909;-22
2024/01/26 15:03:40;;;;;;;;;;;;;;;;;;5033999;28;19927;-23
2024/01/26 15:06:07;;;;;;;;;;;;;;;;;;5034579;28;20071;-23
2024/01/26 15:08:33;;;;;;;;;;;;;;;;;;5035297;28;19967;-23
2024/01/26 15:10:59;;;;;;;;;;;;;;;;;;5038144;28;20008;-23
2024/01/26 15:13:25;;;;;;;;;;;;;;;;;;5038101;28;19909;-23
2024/01/26 15:15:51;;;;;;;;;;;;;;;;;;5038110;28;19913;-23
2024/01/26 15:18:17;;;;;;;;;;;;;;;;;;5036835;28;19913;-23
2024/01/26 15:20:43;;;;;;;;;;;;;;;;;;5037943;28;19919;-22
2024/01/26 15:23:09;;;;;;;;;;;;;;;;;;5037560;28;19963;-23
2024/01/26 15:25:35;;;;;;;;;;;;;;;;;;5037605;28;19941;-22
2024/01/26 15:28:01;;;;;;;;;;;;;;;;;;5037768;28;19920;-23
2024/01/26 15:30:27;;;;;;;;;;;;;;;;;;5037533;28;20337;-23
2024/01/26 15:32:53;;;;;;;;;;;;;;;;;;5037468;28;19996;-23
2024/01/26 15:35:19;;;;;;;;;;;;;;;;;;5036482;28;19967;-23
2024/01/26 15:37:45;;;;;;;;;;;;;;;;;;5036453;28;19975;-23
2024/01/26 15:40:11;;;;;;;;;;;;;;;;;;5037570;28;19909;-23
2024/01/26 15:42:37;;;;;;;;;;;;;;;;;;5037126;28;19936;-23
2024/01/26 15:45:03;;;;;;;;;;;;;;;;;;5036324;28;19917;-23
2024/01/26 15:47:29;;;;;;;;;;;;;;;;;;5037545;28;20358;-22
2024/01/26 15:49:55;;;;;;;;;;;;;;;;;;5037335;28;19909;-23
2024/01/26 15:52:22;;;;;;;;;;;;;;;;;;5036218;28;19925;-23
2024/01/26 15:54:48;;;;;;;;;;;;;;;;;;5037123;28;20293;-23
2024/01/26 15:57:15;;;;;;;;;;;;;;;;;;5036903;28;19909;-23
2024/01/26 15:59:41;;;;;;;;;;;;;;;;;;5037001;28;19920;-24
2024/01/26 16:02:07;;;;;;;;;;;;;;;;;;5036818;28;20332;-28
2024/01/26 16:04:33;;;;;;;;;;;;;;;;;;5036608;28;20005;-23
2024/01/26 16:06:59;;;;;;;;;;;;;;;;;;5036764;28;19923;-23
2024/01/26 16:09:25;;;;;;;;;;;;;;;;;;5037121;28;19909;-23
2024/01/26 16:11:51;;;;;;;;;;;;;;;;;;5036961;28;19976;-24
2024/01/26 16:14:16;;;;;;;;;;;;;;;;;;5036590;28;20256;-23
2024/01/26 16:16:42;;;;;;;;;;;;;;;;;;5035857;28;19909;-23
2024/01/26 16:19:09;;;;;;;;;;;;;;;;;;5035715;28;19920;-24
2024/01/26 16:21:35;;;;;;;;;;;;;;;;;;5035992;28;19952;-24
2024/01/26 16:24:01;;;;;;;;;;;;;;;;;;5035902;28;19910;-24
2024/01/26 16:26:27;;;;;;;;;;;;;;;;;;5035809;28;19913;-23
2024/01/26 16:28:53;;;;;;;;;;;;;;;;;;5035789;28;19920;-24
2024/01/26 16:31:19;;;;;;;;;;;;;;;;;;5035207;28;20016;-24
2024/01/26 16:33:45;;;;;;;;;;;;;;;;;;5035577;28;19917;-23
2024/01/26 16:36:12;;;;;;;;;;;;;;;;;;5035927;28;20023;-23
2024/01/26 16:38:38;;;;;;;;;;;;;;;;;;5035722;28;19921;-24